sensor_id;sensor_type;location;lat;lon;timestamp;P1;durP1;ratioP1;P2;durP2;ratioP2
13611;SDS011;6877;51.436;6.774;2022-10-16T00:00:56;9.32;;;5.72;;
13611;SDS011;6877;51.436;6.774;2022-10-16T00:03:23;7.28;;;5.03;;
13611;SDS011;6877;51.436;6.774;2022-10-16T00:05:58;7.78;;;5.60;;
13611;SDS011;6877;51.436;6.774;2022-10-16T00:08:31;9.63;;;5.50;;
13611;SDS011;6877;51.436;6.774;2022-10-16T00:11:04;9.45;;;5.50;;
13611;SDS011;6877;51.436;6.774;2022-10-16T00:13:39;10.35;;;5.72;;
13611;SDS011;6877;51.436;6.774;2022-10-16T00:16:12;8.90;;;5.47;;
13611;SDS011;6877;51.436;6.774;2022-10-16T00:18:44;12.80;;;6.50;;
13611;SDS011;6877;51.436;6.774;2022-10-16T00:21:16;10.73;;;5.40;;
13611;SDS011;6877;51.436;6.774;2022-10-16T00:23:51;9.95;;;5.75;;
13611;SDS011;6877;51.436;6.774;2022-10-16T00:26:31;14.98;;;7.78;;
13611;SDS011;6877;51.436;6.774;2022-10-16T00:29:04;14.73;;;7.65;;
13611;SDS011;6877;51.436;6.774;2022-10-16T00:31:36;9.07;;;6.03;;
13611;SDS011;6877;51.436;6.774;2022-10-16T00:34:08;11.80;;;6.57;;
13611;SDS011;6877;51.436;6.774;2022-10-16T00:36:39;13.80;;;7.13;;
13611;SDS011;6877;51.436;6.774;2022-10-16T00:39:11;9.07;;;5.75;;
13611;SDS011;6877;51.436;6.774;2022-10-16T00:41:42;13.85;;;6.45;;
13611;SDS011;6877;51.436;6.774;2022-10-16T00:50:00;10.27;;;6.68;;
13611;SDS011;6877;51.436;6.774;2022-10-16T00:52:38;13.73;;;6.53;;
13611;SDS011;6877;51.436;6.774;2022-10-16T00:55:14;10.80;;;6.35;;
13611;SDS011;6877;51.436;6.774;2022-10-16T00:57:45;12.02;;;6.00;;
13611;SDS011;6877;51.436;6.774;2022-10-16T01:00:19;14.55;;;6.47;;
13611;SDS011;6877;51.436;6.774;2022-10-16T01:03:00;13.07;;;6.22;;
13611;SDS011;6877;51.436;6.774;2022-10-16T01:05:35;14.00;;;7.07;;
13611;SDS011;6877;51.436;6.774;2022-10-16T01:08:16;12.07;;;6.53;;
13611;SDS011;6877;51.436;6.774;2022-10-16T01:10:59;13.25;;;5.97;;
13611;SDS011;6877;51.436;6.774;2022-10-16T01:13:42;11.50;;;6.65;;
13611;SDS011;6877;51.436;6.774;2022-10-16T01:16:26;12.43;;;7.15;;
13611;SDS011;6877;51.436;6.774;2022-10-16T01:21:43;16.52;;;8.73;;
13611;SDS011;6877;51.436;6.774;2022-10-16T01:35:09;16.08;;;10.25;;
13611;SDS011;6877;51.436;6.774;2022-10-16T01:38:12;19.17;;;9.07;;
13611;SDS011;6877;51.436;6.774;2022-10-16T01:40:46;14.32;;;8.45;;
13611;SDS011;6877;51.436;6.774;2022-10-16T01:43:24;12.30;;;7.88;;
13611;SDS011;6877;51.436;6.774;2022-10-16T01:46:05;15.35;;;8.70;;
13611;SDS011;6877;51.436;6.774;2022-10-16T01:48:38;15.07;;;8.18;;
13611;SDS011;6877;51.436;6.774;2022-10-16T01:51:12;16.58;;;8.10;;
13611;SDS011;6877;51.436;6.774;2022-10-16T01:53:53;10.88;;;6.95;;
13611;SDS011;6877;51.436;6.774;2022-10-16T01:56:27;15.05;;;7.97;;
13611;SDS011;6877;51.436;6.774;2022-10-16T01:59:02;17.17;;;8.60;;
13611;SDS011;6877;51.436;6.774;2022-10-16T02:01:38;17.42;;;9.25;;
13611;SDS011;6877;51.436;6.774;2022-10-16T02:06:58;14.20;;;8.73;;
13611;SDS011;6877;51.436;6.774;2022-10-16T02:09:30;12.40;;;9.13;;
13611;SDS011;6877;51.436;6.774;2022-10-16T02:12:14;13.23;;;8.65;;
13611;SDS011;6877;51.436;6.774;2022-10-16T02:14:50;13.32;;;8.48;;
13611;SDS011;6877;51.436;6.774;2022-10-16T02:17:22;12.18;;;7.28;;
13611;SDS011;6877;51.436;6.774;2022-10-16T02:19:54;11.40;;;6.70;;
13611;SDS011;6877;51.436;6.774;2022-10-16T02:25:08;12.00;;;5.93;;
13611;SDS011;6877;51.436;6.774;2022-10-16T02:30:36;7.32;;;4.53;;
13611;SDS011;6877;51.436;6.774;2022-10-16T02:33:12;7.50;;;4.10;;
13611;SDS011;6877;51.436;6.774;2022-10-16T02:35:46;7.03;;;4.05;;
13611;SDS011;6877;51.436;6.774;2022-10-16T02:38:20;6.22;;;4.10;;
13611;SDS011;6877;51.436;6.774;2022-10-16T02:40:52;6.55;;;4.55;;
13611;SDS011;6877;51.436;6.774;2022-10-16T02:43:24;6.03;;;4.00;;
13611;SDS011;6877;51.436;6.774;2022-10-16T02:45:56;7.70;;;3.40;;
13611;SDS011;6877;51.436;6.774;2022-10-16T02:48:28;4.47;;;3.55;;
13611;SDS011;6877;51.436;6.774;2022-10-16T02:50:59;5.72;;;3.47;;
13611;SDS011;6877;51.436;6.774;2022-10-16T02:53:31;5.05;;;3.40;;
13611;SDS011;6877;51.436;6.774;2022-10-16T02:56:02;6.78;;;3.25;;
13611;SDS011;6877;51.436;6.774;2022-10-16T02:58:33;4.53;;;3.15;;
13611;SDS011;6877;51.436;6.774;2022-10-16T03:01:00;6.15;;;3.25;;
13611;SDS011;6877;51.436;6.774;2022-10-16T03:03:31;5.47;;;3.75;;
13611;SDS011;6877;51.436;6.774;2022-10-16T03:06:03;11.60;;;4.40;;
13611;SDS011;6877;51.436;6.774;2022-10-16T03:08:34;7.28;;;3.45;;
13611;SDS011;6877;51.436;6.774;2022-10-16T03:11:06;7.75;;;3.20;;
13611;SDS011;6877;51.436;6.774;2022-10-16T03:13:38;10.63;;;3.30;;
13611;SDS011;6877;51.436;6.774;2022-10-16T03:16:04;7.45;;;3.63;;
13611;SDS011;6877;51.436;6.774;2022-10-16T03:18:30;3.72;;;3.10;;
13611;SDS011;6877;51.436;6.774;2022-10-16T03:21:02;4.30;;;3.33;;
13611;SDS011;6877;51.436;6.774;2022-10-16T03:23:33;3.60;;;2.97;;
13611;SDS011;6877;51.436;6.774;2022-10-16T03:26:05;7.65;;;3.28;;
13611;SDS011;6877;51.436;6.774;2022-10-16T03:28:36;5.47;;;3.67;;
13611;SDS011;6877;51.436;6.774;2022-10-16T03:31:08;5.88;;;3.00;;
13611;SDS011;6877;51.436;6.774;2022-10-16T03:33:39;5.13;;;3.45;;
13611;SDS011;6877;51.436;6.774;2022-10-16T03:36:10;6.88;;;3.42;;
13611;SDS011;6877;51.436;6.774;2022-10-16T03:38:42;3.90;;;2.72;;
13611;SDS011;6877;51.436;6.774;2022-10-16T03:41:13;5.95;;;2.80;;
13611;SDS011;6877;51.436;6.774;2022-10-16T03:43:45;8.65;;;3.03;;
13611;SDS011;6877;51.436;6.774;2022-10-16T03:46:16;4.68;;;3.00;;
13611;SDS011;6877;51.436;6.774;2022-10-16T03:48:48;4.45;;;2.75;;
13611;SDS011;6877;51.436;6.774;2022-10-16T03:51:19;4.22;;;3.45;;
13611;SDS011;6877;51.436;6.774;2022-10-16T03:53:50;3.60;;;2.95;;
13611;SDS011;6877;51.436;6.774;2022-10-16T03:56:22;3.90;;;2.80;;
13611;SDS011;6877;51.436;6.774;2022-10-16T03:58:53;3.53;;;2.67;;
13611;SDS011;6877;51.436;6.774;2022-10-16T04:01:24;3.38;;;2.22;;
13611;SDS011;6877;51.436;6.774;2022-10-16T04:03:56;4.32;;;3.08;;
13611;SDS011;6877;51.436;6.774;2022-10-16T04:06:27;2.72;;;2.53;;
13611;SDS011;6877;51.436;6.774;2022-10-16T04:08:58;2.30;;;2.10;;
13611;SDS011;6877;51.436;6.774;2022-10-16T04:11:30;3.28;;;2.60;;
13611;SDS011;6877;51.436;6.774;2022-10-16T04:14:01;3.08;;;2.67;;
13611;SDS011;6877;51.436;6.774;2022-10-16T04:16:32;7.72;;;2.60;;
13611;SDS011;6877;51.436;6.774;2022-10-16T04:19:04;3.25;;;2.47;;
13611;SDS011;6877;51.436;6.774;2022-10-16T04:21:36;4.22;;;2.38;;
13611;SDS011;6877;51.436;6.774;2022-10-16T04:24:07;3.00;;;2.42;;
13611;SDS011;6877;51.436;6.774;2022-10-16T04:26:39;5.28;;;2.22;;
13611;SDS011;6877;51.436;6.774;2022-10-16T04:29:10;9.57;;;2.65;;
13611;SDS011;6877;51.436;6.774;2022-10-16T04:31:41;3.00;;;2.63;;
13611;SDS011;6877;51.436;6.774;2022-10-16T04:34:13;5.65;;;2.47;;
13611;SDS011;6877;51.436;6.774;2022-10-16T04:36:46;3.03;;;2.50;;
13611;SDS011;6877;51.436;6.774;2022-10-16T04:39:18;5.22;;;2.78;;
13611;SDS011;6877;51.436;6.774;2022-10-16T04:41:50;3.85;;;3.20;;
13611;SDS011;6877;51.436;6.774;2022-10-16T04:44:21;5.53;;;2.28;;
13611;SDS011;6877;51.436;6.774;2022-10-16T04:46:53;3.45;;;2.38;;
13611;SDS011;6877;51.436;6.774;2022-10-16T04:49:24;6.35;;;3.13;;
13611;SDS011;6877;51.436;6.774;2022-10-16T04:51:55;4.22;;;3.10;;
13611;SDS011;6877;51.436;6.774;2022-10-16T04:54:28;7.32;;;2.30;;
13611;SDS011;6877;51.436;6.774;2022-10-16T04:56:59;3.88;;;2.58;;
13611;SDS011;6877;51.436;6.774;2022-10-16T04:59:30;2.80;;;2.58;;
13611;SDS011;6877;51.436;6.774;2022-10-16T05:02:02;2.72;;;2.00;;
13611;SDS011;6877;51.436;6.774;2022-10-16T05:04:33;8.20;;;2.65;;
13611;SDS011;6877;51.436;6.774;2022-10-16T05:07:00;2.38;;;1.90;;
13611;SDS011;6877;51.436;6.774;2022-10-16T05:09:32;4.45;;;3.30;;
13611;SDS011;6877;51.436;6.774;2022-10-16T05:12:03;3.60;;;2.10;;
13611;SDS011;6877;51.436;6.774;2022-10-16T05:14:35;2.40;;;2.20;;
13611;SDS011;6877;51.436;6.774;2022-10-16T05:17:07;2.35;;;2.10;;
13611;SDS011;6877;51.436;6.774;2022-10-16T05:19:38;2.85;;;1.98;;
13611;SDS011;6877;51.436;6.774;2022-10-16T05:22:09;5.80;;;2.45;;
13611;SDS011;6877;51.436;6.774;2022-10-16T05:24:41;7.80;;;2.38;;
13611;SDS011;6877;51.436;6.774;2022-10-16T05:27:12;10.60;;;2.13;;
13611;SDS011;6877;51.436;6.774;2022-10-16T05:29:49;3.13;;;2.30;;
13611;SDS011;6877;51.436;6.774;2022-10-16T05:32:21;4.85;;;2.53;;
13611;SDS011;6877;51.436;6.774;2022-10-16T05:34:52;4.72;;;1.90;;
13611;SDS011;6877;51.436;6.774;2022-10-16T05:37:23;6.40;;;2.35;;
13611;SDS011;6877;51.436;6.774;2022-10-16T05:39:55;5.00;;;2.45;;
13611;SDS011;6877;51.436;6.774;2022-10-16T05:42:26;4.50;;;2.50;;
13611;SDS011;6877;51.436;6.774;2022-10-16T05:44:58;3.70;;;2.15;;
13611;SDS011;6877;51.436;6.774;2022-10-16T05:47:29;6.57;;;2.55;;
13611;SDS011;6877;51.436;6.774;2022-10-16T05:50:00;5.97;;;2.45;;
13611;SDS011;6877;51.436;6.774;2022-10-16T05:52:32;3.47;;;2.40;;
13611;SDS011;6877;51.436;6.774;2022-10-16T05:55:03;5.68;;;2.40;;
13611;SDS011;6877;51.436;6.774;2022-10-16T05:57:30;3.10;;;2.80;;
13611;SDS011;6877;51.436;6.774;2022-10-16T06:00:03;3.63;;;2.60;;
13611;SDS011;6877;51.436;6.774;2022-10-16T06:02:35;8.40;;;2.67;;
13611;SDS011;6877;51.436;6.774;2022-10-16T06:05:06;4.53;;;2.55;;
13611;SDS011;6877;51.436;6.774;2022-10-16T06:07:38;3.78;;;2.55;;
13611;SDS011;6877;51.436;6.774;2022-10-16T06:10:09;3.78;;;3.05;;
13611;SDS011;6877;51.436;6.774;2022-10-16T06:12:41;2.95;;;2.40;;
13611;SDS011;6877;51.436;6.774;2022-10-16T06:15:07;10.32;;;3.95;;
13611;SDS011;6877;51.436;6.774;2022-10-16T06:17:39;3.28;;;2.40;;
13611;SDS011;6877;51.436;6.774;2022-10-16T06:20:10;11.25;;;2.97;;
13611;SDS011;6877;51.436;6.774;2022-10-16T06:22:42;4.32;;;2.90;;
13611;SDS011;6877;51.436;6.774;2022-10-16T06:25:08;4.57;;;2.42;;
13611;SDS011;6877;51.436;6.774;2022-10-16T06:27:40;8.02;;;2.80;;
13611;SDS011;6877;51.436;6.774;2022-10-16T06:30:11;3.53;;;2.35;;
13611;SDS011;6877;51.436;6.774;2022-10-16T06:32:43;3.20;;;2.42;;
13611;SDS011;6877;51.436;6.774;2022-10-16T06:35:14;7.43;;;3.33;;
13611;SDS011;6877;51.436;6.774;2022-10-16T06:37:46;4.82;;;2.53;;
13611;SDS011;6877;51.436;6.774;2022-10-16T06:40:17;4.80;;;2.60;;
13611;SDS011;6877;51.436;6.774;2022-10-16T06:42:48;7.32;;;2.97;;
13611;SDS011;6877;51.436;6.774;2022-10-16T06:45:20;2.67;;;2.47;;
13611;SDS011;6877;51.436;6.774;2022-10-16T06:47:51;4.13;;;2.83;;
13611;SDS011;6877;51.436;6.774;2022-10-16T06:50:22;3.83;;;3.17;;
13611;SDS011;6877;51.436;6.774;2022-10-16T06:52:54;2.85;;;2.53;;
13611;SDS011;6877;51.436;6.774;2022-10-16T06:55:26;3.05;;;2.70;;
13611;SDS011;6877;51.436;6.774;2022-10-16T06:57:57;6.18;;;2.92;;
13611;SDS011;6877;51.436;6.774;2022-10-16T07:00:23;4.35;;;2.72;;
13611;SDS011;6877;51.436;6.774;2022-10-16T07:02:55;4.10;;;2.88;;
13611;SDS011;6877;51.436;6.774;2022-10-16T07:05:26;8.13;;;2.50;;
13611;SDS011;6877;51.436;6.774;2022-10-16T07:07:57;3.08;;;2.78;;
13611;SDS011;6877;51.436;6.774;2022-10-16T07:10:29;6.03;;;3.47;;
13611;SDS011;6877;51.436;6.774;2022-10-16T07:13:00;6.35;;;2.92;;
13611;SDS011;6877;51.436;6.774;2022-10-16T07:15:32;3.92;;;2.80;;
13611;SDS011;6877;51.436;6.774;2022-10-16T07:18:04;6.28;;;3.10;;
13611;SDS011;6877;51.436;6.774;2022-10-16T07:20:36;5.38;;;2.65;;
13611;SDS011;6877;51.436;6.774;2022-10-16T07:23:08;6.65;;;3.60;;
13611;SDS011;6877;51.436;6.774;2022-10-16T07:25:39;4.25;;;2.67;;
13611;SDS011;6877;51.436;6.774;2022-10-16T07:28:11;2.70;;;2.45;;
13611;SDS011;6877;51.436;6.774;2022-10-16T07:30:37;4.28;;;3.05;;
13611;SDS011;6877;51.436;6.774;2022-10-16T07:33:09;6.03;;;3.13;;
13611;SDS011;6877;51.436;6.774;2022-10-16T07:38:22;11.63;;;3.45;;
13611;SDS011;6877;51.436;6.774;2022-10-16T07:41:00;14.70;;;3.22;;
13611;SDS011;6877;51.436;6.774;2022-10-16T07:43:29;9.63;;;3.72;;
13611;SDS011;6877;51.436;6.774;2022-10-16T07:45:58;4.97;;;3.30;;
13611;SDS011;6877;51.436;6.774;2022-10-16T07:48:31;3.67;;;3.10;;
13611;SDS011;6877;51.436;6.774;2022-10-16T07:51:04;6.25;;;2.92;;
13611;SDS011;6877;51.436;6.774;2022-10-16T07:53:33;7.93;;;2.83;;
13611;SDS011;6877;51.436;6.774;2022-10-16T07:56:05;4.15;;;1.92;;
13611;SDS011;6877;51.436;6.774;2022-10-16T07:58:37;7.00;;;2.20;;
13611;SDS011;6877;51.436;6.774;2022-10-16T08:01:09;1.83;;;1.50;;
13611;SDS011;6877;51.436;6.774;2022-10-16T08:03:44;3.75;;;1.90;;
13611;SDS011;6877;51.436;6.774;2022-10-16T08:06:17;2.22;;;1.63;;
13611;SDS011;6877;51.436;6.774;2022-10-16T08:08:49;4.28;;;2.25;;
13611;SDS011;6877;51.436;6.774;2022-10-16T08:11:21;2.70;;;1.60;;
13611;SDS011;6877;51.436;6.774;2022-10-16T08:13:52;4.57;;;1.42;;
13611;SDS011;6877;51.436;6.774;2022-10-16T08:16:24;2.03;;;1.30;;
13611;SDS011;6877;51.436;6.774;2022-10-16T08:18:55;3.60;;;1.85;;
13611;SDS011;6877;51.436;6.774;2022-10-16T08:21:26;2.60;;;1.55;;
13611;SDS011;6877;51.436;6.774;2022-10-16T08:23:58;2.58;;;1.52;;
13611;SDS011;6877;51.436;6.774;2022-10-16T08:26:30;2.70;;;1.17;;
13611;SDS011;6877;51.436;6.774;2022-10-16T08:29:01;6.55;;;1.60;;
13611;SDS011;6877;51.436;6.774;2022-10-16T08:31:27;5.22;;;2.10;;
13611;SDS011;6877;51.436;6.774;2022-10-16T08:33:59;5.45;;;1.45;;
13611;SDS011;6877;51.436;6.774;2022-10-16T08:36:31;8.23;;;1.60;;
13611;SDS011;6877;51.436;6.774;2022-10-16T08:39:02;1.55;;;1.30;;
13611;SDS011;6877;51.436;6.774;2022-10-16T08:50:27;2.67;;;1.25;;
13611;SDS011;6877;51.436;6.774;2022-10-16T08:53:00;1.02;;;0.70;;
13611;SDS011;6877;51.436;6.774;2022-10-16T08:58:23;2.97;;;0.75;;
13611;SDS011;6877;51.436;6.774;2022-10-16T09:01:11;1.90;;;0.95;;
13611;SDS011;6877;51.436;6.774;2022-10-16T09:06:45;3.45;;;1.08;;
13611;SDS011;6877;51.436;6.774;2022-10-16T09:23:25;1.67;;;0.75;;
13611;SDS011;6877;51.436;6.774;2022-10-16T09:25:58;5.18;;;0.90;;
13611;SDS011;6877;51.436;6.774;2022-10-16T09:28:30;1.13;;;0.85;;
13611;SDS011;6877;51.436;6.774;2022-10-16T09:31:01;2.10;;;0.90;;
13611;SDS011;6877;51.436;6.774;2022-10-16T09:33:36;2.60;;;1.13;;
13611;SDS011;6877;51.436;6.774;2022-10-16T09:36:10;1.63;;;0.75;;
13611;SDS011;6877;51.436;6.774;2022-10-16T09:38:44;5.10;;;1.25;;
13611;SDS011;6877;51.436;6.774;2022-10-16T09:41:19;3.90;;;1.30;;
13611;SDS011;6877;51.436;6.774;2022-10-16T09:43:53;1.67;;;0.70;;
13611;SDS011;6877;51.436;6.774;2022-10-16T09:49:25;1.25;;;0.80;;
13611;SDS011;6877;51.436;6.774;2022-10-16T09:52:31;2.88;;;0.98;;
13611;SDS011;6877;51.436;6.774;2022-10-16T09:54:56;4.25;;;1.30;;
13611;SDS011;6877;51.436;6.774;2022-10-16T09:57:28;1.77;;;0.77;;
13611;SDS011;6877;51.436;6.774;2022-10-16T10:00:04;1.13;;;0.98;;
13611;SDS011;6877;51.436;6.774;2022-10-16T10:02:39;2.22;;;1.20;;
13611;SDS011;6877;51.436;6.774;2022-10-16T10:05:18;3.42;;;1.20;;
13611;SDS011;6877;51.436;6.774;2022-10-16T10:08:12;1.92;;;1.15;;
13611;SDS011;6877;51.436;6.774;2022-10-16T10:10:47;2.85;;;1.30;;
13611;SDS011;6877;51.436;6.774;2022-10-16T10:13:20;3.33;;;1.50;;
13611;SDS011;6877;51.436;6.774;2022-10-16T10:15:52;2.40;;;1.42;;
13611;SDS011;6877;51.436;6.774;2022-10-16T10:18:24;3.53;;;1.50;;
13611;SDS011;6877;51.436;6.774;2022-10-16T10:20:58;3.38;;;1.38;;
13611;SDS011;6877;51.436;6.774;2022-10-16T10:23:31;3.70;;;1.42;;
13611;SDS011;6877;51.436;6.774;2022-10-16T10:26:11;6.63;;;1.50;;
13611;SDS011;6877;51.436;6.774;2022-10-16T10:43:04;2.80;;;1.15;;
13611;SDS011;6877;51.436;6.774;2022-10-16T10:45:52;1.98;;;1.02;;
13611;SDS011;6877;51.436;6.774;2022-10-16T10:48:51;3.80;;;1.20;;
13611;SDS011;6877;51.436;6.774;2022-10-16T11:00:15;4.07;;;1.52;;
13611;SDS011;6877;51.436;6.774;2022-10-16T11:06:06;4.13;;;1.20;;
13611;SDS011;6877;51.436;6.774;2022-10-16T11:09:00;4.43;;;1.35;;
13611;SDS011;6877;51.436;6.774;2022-10-16T11:11:43;3.58;;;1.75;;
13611;SDS011;6877;51.436;6.774;2022-10-16T11:14:22;4.47;;;1.73;;
13611;SDS011;6877;51.436;6.774;2022-10-16T11:20:16;2.78;;;1.55;;
13611;SDS011;6877;51.436;6.774;2022-10-16T11:22:53;4.88;;;1.40;;
13611;SDS011;6877;51.436;6.774;2022-10-16T11:25:30;3.30;;;1.45;;
13611;SDS011;6877;51.436;6.774;2022-10-16T11:28:08;3.85;;;1.38;;
13611;SDS011;6877;51.436;6.774;2022-10-16T11:30:43;3.25;;;2.03;;
13611;SDS011;6877;51.436;6.774;2022-10-16T11:36:11;2.78;;;1.55;;
13611;SDS011;6877;51.436;6.774;2022-10-16T11:42:36;3.38;;;1.80;;
13611;SDS011;6877;51.436;6.774;2022-10-16T11:55:54;1.88;;;1.00;;
13611;SDS011;6877;51.436;6.774;2022-10-16T12:03:41;1.95;;;1.35;;
13611;SDS011;6877;51.436;6.774;2022-10-16T12:06:20;4.40;;;1.20;;
13611;SDS011;6877;51.436;6.774;2022-10-16T12:08:59;3.88;;;1.42;;
13611;SDS011;6877;51.436;6.774;2022-10-16T12:11:33;2.60;;;1.95;;
13611;SDS011;6877;51.436;6.774;2022-10-16T12:19:26;2.25;;;1.63;;
13611;SDS011;6877;51.436;6.774;2022-10-16T12:22:02;3.65;;;1.50;;
13611;SDS011;6877;51.436;6.774;2022-10-16T12:24:39;4.22;;;1.48;;
13611;SDS011;6877;51.436;6.774;2022-10-16T12:27:27;3.33;;;1.58;;
13611;SDS011;6877;51.436;6.774;2022-10-16T12:30:00;2.95;;;1.52;;
13611;SDS011;6877;51.436;6.774;2022-10-16T12:32:37;2.25;;;1.38;;
13611;SDS011;6877;51.436;6.774;2022-10-16T12:35:23;1.98;;;1.75;;
13611;SDS011;6877;51.436;6.774;2022-10-16T12:37:53;3.13;;;1.40;;
13611;SDS011;6877;51.436;6.774;2022-10-16T12:40:26;3.47;;;1.50;;
13611;SDS011;6877;51.436;6.774;2022-10-16T12:42:59;3.63;;;1.67;;
13611;SDS011;6877;51.436;6.774;2022-10-16T12:45:37;3.38;;;2.20;;
13611;SDS011;6877;51.436;6.774;2022-10-16T12:48:21;5.90;;;2.13;;
13611;SDS011;6877;51.436;6.774;2022-10-16T12:50:53;3.05;;;1.65;;
13611;SDS011;6877;51.436;6.774;2022-10-16T12:53:25;4.90;;;1.60;;
13611;SDS011;6877;51.436;6.774;2022-10-16T12:56:01;2.60;;;1.27;;
13611;SDS011;6877;51.436;6.774;2022-10-16T13:15:34;5.72;;;2.50;;
13611;SDS011;6877;51.436;6.774;2022-10-16T13:26:44;3.75;;;1.73;;
13611;SDS011;6877;51.436;6.774;2022-10-16T13:29:24;2.75;;;1.55;;
13611;SDS011;6877;51.436;6.774;2022-10-16T13:32:06;4.55;;;1.70;;
13611;SDS011;6877;51.436;6.774;2022-10-16T13:34:43;2.00;;;1.42;;
13611;SDS011;6877;51.436;6.774;2022-10-16T13:37:19;4.07;;;1.45;;
13611;SDS011;6877;51.436;6.774;2022-10-16T13:40:02;3.15;;;1.75;;
13611;SDS011;6877;51.436;6.774;2022-10-16T13:42:40;6.03;;;2.08;;
13611;SDS011;6877;51.436;6.774;2022-10-16T13:45:19;6.68;;;1.60;;
13611;SDS011;6877;51.436;6.774;2022-10-16T13:48:01;4.07;;;2.20;;
13611;SDS011;6877;51.436;6.774;2022-10-16T13:50:33;7.05;;;2.03;;
13611;SDS011;6877;51.436;6.774;2022-10-16T13:53:06;5.40;;;1.80;;
13611;SDS011;6877;51.436;6.774;2022-10-16T13:55:43;5.00;;;1.40;;
13611;SDS011;6877;51.436;6.774;2022-10-16T13:58:15;2.83;;;1.50;;
13611;SDS011;6877;51.436;6.774;2022-10-16T14:01:05;2.25;;;1.50;;
13611;SDS011;6877;51.436;6.774;2022-10-16T14:03:47;3.15;;;1.50;;
13611;SDS011;6877;51.436;6.774;2022-10-16T14:06:20;3.65;;;1.38;;
13611;SDS011;6877;51.436;6.774;2022-10-16T14:08:55;2.10;;;1.60;;
13611;SDS011;6877;51.436;6.774;2022-10-16T14:11:28;4.88;;;1.70;;
13611;SDS011;6877;51.436;6.774;2022-10-16T14:14:00;3.42;;;1.63;;
13611;SDS011;6877;51.436;6.774;2022-10-16T14:16:33;3.15;;;1.65;;
13611;SDS011;6877;51.436;6.774;2022-10-16T14:19:05;7.35;;;1.88;;
13611;SDS011;6877;51.436;6.774;2022-10-16T14:21:37;2.88;;;1.48;;
13611;SDS011;6877;51.436;6.774;2022-10-16T14:24:12;2.72;;;1.35;;
13611;SDS011;6877;51.436;6.774;2022-10-16T14:26:52;1.63;;;1.30;;
13611;SDS011;6877;51.436;6.774;2022-10-16T14:29:27;5.40;;;2.05;;
13611;SDS011;6877;51.436;6.774;2022-10-16T14:32:03;1.73;;;1.35;;
13611;SDS011;6877;51.436;6.774;2022-10-16T14:34:37;6.90;;;2.20;;
13611;SDS011;6877;51.436;6.774;2022-10-16T14:37:25;2.35;;;1.55;;
13611;SDS011;6877;51.436;6.774;2022-10-16T14:39:59;3.10;;;1.50;;
13611;SDS011;6877;51.436;6.774;2022-10-16T14:42:32;3.83;;;1.75;;
13611;SDS011;6877;51.436;6.774;2022-10-16T14:45:07;3.08;;;1.45;;
13611;SDS011;6877;51.436;6.774;2022-10-16T14:47:46;11.20;;;3.33;;
13611;SDS011;6877;51.436;6.774;2022-10-16T14:50:21;6.78;;;3.05;;
13611;SDS011;6877;51.436;6.774;2022-10-16T14:52:53;6.55;;;3.38;;
13611;SDS011;6877;51.436;6.774;2022-10-16T14:55:24;6.57;;;2.95;;
13611;SDS011;6877;51.436;6.774;2022-10-16T14:57:56;5.75;;;2.58;;
13611;SDS011;6877;51.436;6.774;2022-10-16T15:00:28;4.88;;;2.50;;
13611;SDS011;6877;51.436;6.774;2022-10-16T15:02:59;3.33;;;1.88;;
13611;SDS011;6877;51.436;6.774;2022-10-16T15:05:30;3.70;;;1.92;;
13611;SDS011;6877;51.436;6.774;2022-10-16T15:08:03;3.95;;;2.17;;
13611;SDS011;6877;51.436;6.774;2022-10-16T15:10:38;3.25;;;2.05;;
13611;SDS011;6877;51.436;6.774;2022-10-16T15:13:12;4.38;;;2.47;;
13611;SDS011;6877;51.436;6.774;2022-10-16T15:15:45;4.25;;;2.25;;
13611;SDS011;6877;51.436;6.774;2022-10-16T15:18:18;5.80;;;2.00;;
13611;SDS011;6877;51.436;6.774;2022-10-16T15:20:52;3.85;;;1.83;;
13611;SDS011;6877;51.436;6.774;2022-10-16T15:23:25;3.45;;;2.10;;
13611;SDS011;6877;51.436;6.774;2022-10-16T15:25:56;4.68;;;2.00;;
13611;SDS011;6877;51.436;6.774;2022-10-16T15:28:28;5.38;;;2.03;;
13611;SDS011;6877;51.436;6.774;2022-10-16T15:30:59;7.38;;;2.50;;
13611;SDS011;6877;51.436;6.774;2022-10-16T15:33:31;6.35;;;2.22;;
13611;SDS011;6877;51.436;6.774;2022-10-16T15:36:06;5.45;;;1.92;;
13611;SDS011;6877;51.436;6.774;2022-10-16T15:38:38;7.35;;;2.28;;
13611;SDS011;6877;51.436;6.774;2022-10-16T15:41:09;2.30;;;1.42;;
13611;SDS011;6877;51.436;6.774;2022-10-16T15:43:41;3.53;;;1.48;;
13611;SDS011;6877;51.436;6.774;2022-10-16T15:46:12;3.78;;;1.75;;
13611;SDS011;6877;51.436;6.774;2022-10-16T15:48:45;5.18;;;2.30;;
13611;SDS011;6877;51.436;6.774;2022-10-16T15:51:18;4.60;;;1.88;;
13611;SDS011;6877;51.436;6.774;2022-10-16T15:53:49;2.75;;;1.52;;
13611;SDS011;6877;51.436;6.774;2022-10-16T15:56:22;3.13;;;1.70;;
13611;SDS011;6877;51.436;6.774;2022-10-16T15:58:56;7.55;;;2.40;;
13611;SDS011;6877;51.436;6.774;2022-10-16T16:01:32;3.80;;;2.03;;
13611;SDS011;6877;51.436;6.774;2022-10-16T16:04:04;6.20;;;2.20;;
13611;SDS011;6877;51.436;6.774;2022-10-16T16:06:36;5.72;;;2.83;;
13611;SDS011;6877;51.436;6.774;2022-10-16T16:09:10;3.70;;;1.70;;
13611;SDS011;6877;51.436;6.774;2022-10-16T16:11:42;5.20;;;2.13;;
13611;SDS011;6877;51.436;6.774;2022-10-16T16:14:14;6.78;;;2.50;;
13611;SDS011;6877;51.436;6.774;2022-10-16T16:16:46;2.20;;;1.58;;
13611;SDS011;6877;51.436;6.774;2022-10-16T16:19:17;5.43;;;1.83;;
13611;SDS011;6877;51.436;6.774;2022-10-16T16:21:47;2.50;;;1.77;;
13611;SDS011;6877;51.436;6.774;2022-10-16T16:24:19;2.83;;;1.85;;
13611;SDS011;6877;51.436;6.774;2022-10-16T16:26:51;4.15;;;1.95;;
13611;SDS011;6877;51.436;6.774;2022-10-16T16:29:22;2.60;;;1.83;;
13611;SDS011;6877;51.436;6.774;2022-10-16T16:31:54;5.03;;;2.30;;
13611;SDS011;6877;51.436;6.774;2022-10-16T16:34:28;2.40;;;1.63;;
13611;SDS011;6877;51.436;6.774;2022-10-16T16:36:59;1.67;;;1.50;;
13611;SDS011;6877;51.436;6.774;2022-10-16T16:39:31;5.25;;;2.05;;
13611;SDS011;6877;51.436;6.774;2022-10-16T16:42:02;3.00;;;1.75;;
13611;SDS011;6877;51.436;6.774;2022-10-16T16:44:35;3.13;;;1.65;;
13611;SDS011;6877;51.436;6.774;2022-10-16T16:47:08;2.60;;;2.00;;
13611;SDS011;6877;51.436;6.774;2022-10-16T16:49:40;8.23;;;3.47;;
13611;SDS011;6877;51.436;6.774;2022-10-16T16:52:12;3.50;;;2.10;;
13611;SDS011;6877;51.436;6.774;2022-10-16T16:54:44;3.28;;;2.22;;
13611;SDS011;6877;51.436;6.774;2022-10-16T16:57:22;5.22;;;2.90;;
13611;SDS011;6877;51.436;6.774;2022-10-16T16:59:53;6.38;;;3.55;;
13611;SDS011;6877;51.436;6.774;2022-10-16T17:02:25;4.57;;;3.53;;
13611;SDS011;6877;51.436;6.774;2022-10-16T17:04:56;5.80;;;2.92;;
13611;SDS011;6877;51.436;6.774;2022-10-16T17:07:23;9.07;;;3.67;;
13611;SDS011;6877;51.436;6.774;2022-10-16T17:09:56;7.03;;;3.53;;
13611;SDS011;6877;51.436;6.774;2022-10-16T17:12:30;7.43;;;4.38;;
13611;SDS011;6877;51.436;6.774;2022-10-16T17:14:57;5.47;;;3.53;;
13611;SDS011;6877;51.436;6.774;2022-10-16T17:17:28;3.35;;;2.80;;
13611;SDS011;6877;51.436;6.774;2022-10-16T17:20:00;5.07;;;3.10;;
13611;SDS011;6877;51.436;6.774;2022-10-16T17:22:31;6.13;;;3.33;;
13611;SDS011;6877;51.436;6.774;2022-10-16T17:25:03;6.45;;;3.20;;
13611;SDS011;6877;51.436;6.774;2022-10-16T17:27:34;5.82;;;3.40;;
13611;SDS011;6877;51.436;6.774;2022-10-16T17:30:07;7.75;;;3.00;;
13611;SDS011;6877;51.436;6.774;2022-10-16T17:32:39;9.50;;;4.00;;
13611;SDS011;6877;51.436;6.774;2022-10-16T17:35:10;5.13;;;3.42;;
13611;SDS011;6877;51.436;6.774;2022-10-16T17:37:41;6.47;;;3.45;;
13611;SDS011;6877;51.436;6.774;2022-10-16T17:40:13;11.23;;;4.43;;
13611;SDS011;6877;51.436;6.774;2022-10-16T17:42:44;7.28;;;3.65;;
13611;SDS011;6877;51.436;6.774;2022-10-16T17:45:16;8.18;;;4.35;;
13611;SDS011;6877;51.436;6.774;2022-10-16T17:47:47;5.13;;;4.03;;
13611;SDS011;6877;51.436;6.774;2022-10-16T17:50:19;5.68;;;3.50;;
13611;SDS011;6877;51.436;6.774;2022-10-16T17:52:50;4.28;;;3.33;;
13611;SDS011;6877;51.436;6.774;2022-10-16T17:55:21;5.10;;;3.13;;
13611;SDS011;6877;51.436;6.774;2022-10-16T17:57:53;6.60;;;4.13;;
13611;SDS011;6877;51.436;6.774;2022-10-16T18:00:24;5.72;;;3.55;;
13611;SDS011;6877;51.436;6.774;2022-10-16T18:02:51;6.10;;;3.88;;